Time;durP1;ratioP1;P1;durP2;ratioP2;P2;SDS_P1;SDS_P2;PMS_P1;PMS_P2;Temp;Humidity;BMP_temperature;BMP_pressure;BME280_temperature;BME280_humidity;BME280_pressure;Samples;Min_cycle;Max_cycle;Signal;HPM_P1;HPM_P2
2021/08/26 00:07:07;;;;;;;1999.90;999.90;;;17.20;99.90;;;;;;5062774;28;20455;-84
2021/08/26 00:09:34;;;;;;;1999.90;999.90;;;17.10;99.90;;;;;;5053083;28;20498;-83
2021/08/26 00:12:01;;;;;;;1999.90;999.90;;;17.00;99.90;;;;;;5052903;28;20460;-83
2021/08/26 00:14:28;;;;;;;1999.90;999.90;;;17.10;99.90;;;;;;5052785;28;20459;-82
2021/08/26 00:16:54;;;;;;;1999.90;999.90;;;17.10;99.90;;;;;;5052720;28;20455;-84
2021/08/26 00:19:23;;;;;;;1999.90;999.90;;;17.00;99.90;;;;;;5052541;28;20546;-83
2021/08/26 00:21:50;;;;;;;1999.90;999.90;;;17.00;99.90;;;;;;5052887;28;20537;-84
2021/08/26 00:24:17;;;;;;;1999.90;999.90;;;17.00;99.90;;;;;;5052815;28;20514;-84
2021/08/26 00:26:44;;;;;;;1999.90;999.90;;;16.90;99.90;;;;;;5063380;28;20432;-86
2021/08/26 00:29:11;;;;;;;1999.90;999.90;;;16.90;99.90;;;;;;5072678;28;20471;-85
2021/08/26 00:31:38;;;;;;;1999.90;999.90;;;17.00;99.90;;;;;;5067069;28;20451;-86
2021/08/26 00:34:05;;;;;;;1999.90;999.90;;;17.00;99.90;;;;;;5065701;28;20546;-85
2021/08/26 00:36:33;;;;;;;1999.90;999.90;;;17.10;99.90;;;;;;5064903;28;20451;-86
2021/08/26 00:38:59;;;;;;;1999.90;999.90;;;17.10;99.90;;;;;;5062769;28;20473;-86
2021/08/26 00:41:27;;;;;;;1999.90;999.90;;;17.20;99.90;;;;;;5064776;28;20459;-87
2021/08/26 00:43:54;;;;;;;1999.90;999.90;;;17.10;99.90;;;;;;5062503;28;20485;-87
2021/08/26 00:46:21;;;;;;;1999.90;999.90;;;17.10;99.90;;;;;;5064664;28;20755;-85
2021/08/26 00:48:48;;;;;;;1999.90;999.90;;;17.10;99.90;;;;;;5063306;28;20487;-85
2021/08/26 00:51:16;;;;;;;1999.90;999.90;;;17.20;99.90;;;;;;5065990;28;20519;-85
2021/08/26 00:53:45;;;;;;;1999.90;999.90;;;17.20;99.90;;;;;;5066824;28;20472;-85
2021/08/26 00:56:13;;;;;;;1999.90;999.90;;;17.20;99.90;;;;;;5068884;28;20524;-85
2021/08/26 00:58:41;;;;;;;1999.90;999.90;;;17.10;99.90;;;;;;5068387;28;20468;-86
2021/08/26 01:01:11;;;;;;;1999.90;999.90;;;17.20;99.90;;;;;;5067559;28;20447;-85
2021/08/26 01:03:47;;;;;;;1999.90;999.90;;;17.10;99.90;;;;;;5068255;28;20542;-85
2021/08/26 01:06:16;;;;;;;1999.90;999.90;;;17.10;99.90;;;;;;5049959;28;20449;-85
2021/08/26 01:08:51;;;;;;;1999.90;999.90;;;17.10;99.90;;;;;;5068630;28;20470;-86
2021/08/26 01:11:18;;;;;;;1999.90;999.90;;;16.90;99.90;;;;;;5067326;28;20476;-85
2021/08/26 01:13:47;;;;;;;1999.90;999.90;;;16.90;99.90;;;;;;5068943;28;20553;-85
2021/08/26 01:16:15;;;;;;;1999.90;999.90;;;16.90;99.90;;;;;;5068687;28;20446;-86
2021/08/26 01:18:44;;;;;;;1999.90;999.90;;;17.00;99.90;;;;;;5069377;28;20519;-85
2021/08/26 01:21:12;;;;;;;1999.90;999.90;;;16.90;99.90;;;;;;5070455;28;20451;-85
2021/08/26 01:23:43;;;;;;;1999.90;999.90;;;16.80;99.90;;;;;;5070359;28;20474;-84
2021/08/26 01:26:14;;;;;;;1999.90;999.90;;;16.90;99.90;;;;;;5068458;28;20515;-87
2021/08/26 01:28:44;;;;;;;1999.90;999.90;;;16.80;99.90;;;;;;5066503;28;20499;-86
2021/08/26 01:31:11;;;;;;;1999.90;999.90;;;16.80;99.90;;;;;;5066964;28;20444;-85
2021/08/26 01:33:38;;;;;;;1999.90;999.90;;;;;;;;;;5066067;28;20455;-85
2021/08/26 01:36:05;;;;;;;1999.90;999.90;;;;;;;;;;5063182;28;20523;-85
2021/08/26 01:38:32;;;;;;;1999.90;999.90;;;;;;;;;;5064830;28;21024;-86
2021/08/26 01:41:00;;;;;;;1999.90;999.90;;;;;;;;;;5063875;28;20443;-86
2021/08/26 01:43:30;;;;;;;1999.90;999.90;;;;;;;;;;5065830;28;20515;-85
2021/08/26 01:45:57;;;;;;;1999.90;999.90;;;;;;;;;;5063536;28;20545;-86
2021/08/26 01:48:24;;;;;;;1999.90;999.90;;;;;;;;;;5064055;28;20468;-85
2021/08/26 01:50:51;;;;;;;1999.90;999.90;;;;;;;;;;5063660;28;20443;-87
2021/08/26 01:53:20;;;;;;;1999.90;999.90;;;;;;;;;;5063857;28;20451;-86
2021/08/26 01:55:47;;;;;;;1999.90;999.90;;;;;;;;;;5063941;28;20455;-85
2021/08/26 01:58:14;;;;;;;1999.90;999.90;;;;;;;;;;5060981;28;20472;-85
2021/08/26 02:00:42;;;;;;;1999.90;999.90;;;;;;;;;;5063498;28;20448;-84
2021/08/26 02:03:10;;;;;;;1999.90;999.90;;;;;;;;;;5064630;28;20977;-85
2021/08/26 02:05:37;;;;;;;1999.90;999.90;;;;;;;;;;5063609;28;20513;-85
2021/08/26 02:08:04;;;;;;;1999.90;999.90;;;;;;;;;;5063117;28;20478;-85
2021/08/26 02:10:31;;;;;;;1999.90;999.90;;;;;;;;;;5063305;28;20462;-85
2021/08/26 02:12:58;;;;;;;1999.90;999.90;;;;;;;;;;5062246;28;21016;-85
2021/08/26 02:15:25;;;;;;;1999.90;999.90;;;;;;;;;;5064651;28;20441;-86
2021/08/26 02:17:54;;;;;;;1999.90;999.90;;;;;;;;;;5061080;28;20459;-86
2021/08/26 02:20:21;;;;;;;1999.90;999.90;;;;;;;;;;5060045;28;20829;-84
2021/08/26 02:22:48;;;;;;;1999.90;999.90;;;;;;;;;;5060615;28;20454;-85
2021/08/26 02:25:15;;;;;;;1999.90;999.90;;;;;;;;;;5060939;28;20483;-87
2021/08/26 02:27:42;;;;;;;1999.90;999.90;;;;;;;;;;5070284;28;20454;-84
2021/08/26 02:30:10;;;;;;;1999.90;999.90;;;;;;;;;;5061322;28;20955;-85
2021/08/26 02:32:37;;;;;;;1999.90;999.90;;;;;;;;;;5059620;28;20457;-85
2021/08/26 02:35:06;;;;;;;1999.90;999.90;;;;;;;;;;5057528;28;20959;-85
2021/08/26 02:37:34;;;;;;;1999.90;999.90;;;;;;;;;;5053767;28;20454;-85
2021/08/26 02:40:01;;;;;;;1999.90;999.90;;;;;;;;;;5054218;28;20481;-85
2021/08/26 02:42:29;;;;;;;1999.90;999.90;;;;;;;;;;5054480;28;20462;-85
2021/08/26 02:44:56;;;;;;;1999.90;999.90;;;;;;;;;;5053762;28;20509;-84
2021/08/26 02:47:23;;;;;;;1999.90;999.90;;;;;;;;;;5054171;28;20457;-84
2021/08/26 02:49:50;;;;;;;1999.90;999.90;;;;;;;;;;5054067;28;20476;-84
2021/08/26 02:52:19;;;;;;;1999.90;999.90;;;;;;;;;;5054702;28;20508;-86
2021/08/26 02:54:46;;;;;;;1999.90;999.90;;;;;;;;;;5053813;28;20454;-86
2021/08/26 02:57:13;;;;;;;1999.90;999.90;;;;;;;;;;5054140;28;20444;-85
2021/08/26 02:59:40;;;;;;;1999.90;999.90;;;;;;;;;;5053686;28;20485;-85
2021/08/26 03:02:07;;;;;;;1999.90;999.90;;;;;;;;;;5053578;28;20462;-85
2021/08/26 03:04:34;;;;;;;1999.90;999.90;;;;;;;;;;5054139;28;20485;-85
2021/08/26 03:07:01;;;;;;;1999.90;999.90;;;;;;;;;;5053884;28;20831;-85
2021/08/26 03:09:30;;;;;;;1999.90;999.90;;;;;;;;;;5053380;28;20476;-85
2021/08/26 03:11:57;;;;;;;1999.90;999.90;;;;;;;;;;5053315;28;20469;-85
2021/08/26 03:14:24;;;;;;;1999.90;999.90;;;;;;;;;;5053436;28;20469;-85
2021/08/26 03:16:51;;;;;;;1999.90;999.90;;;;;;;;;;5052886;28;20455;-85
2021/08/26 03:19:18;;;;;;;1999.90;999.90;;;;;;;;;;5055156;28;20484;-85
2021/08/26 03:21:45;;;;;;;1999.90;999.90;;;;;;;;;;5054275;28;20864;-85
2021/08/26 03:24:13;;;;;;;1999.90;999.90;;;;;;;;;;5057264;28;20496;-84
2021/08/26 03:26:41;;;;;;;1999.90;999.90;;;;;;;;;;5059489;28;20454;-85
2021/08/26 03:29:08;;;;;;;1999.90;999.90;;;;;;;;;;5061039;28;20476;-85
2021/08/26 03:31:35;;;;;;;1999.90;999.90;;;;;;;;;;5061064;28;20467;-85
2021/08/26 03:34:03;;;;;;;1999.90;999.90;;;;;;;;;;5070577;28;20456;-89
2021/08/26 03:36:30;;;;;;;1999.90;999.90;;;;;;;;;;5068461;28;20459;-86
2021/08/26 03:38:57;;;;;;;1999.90;999.90;;;;;;;;;;5065821;28;20467;-85
2021/08/26 03:41:24;;;;;;;1999.90;999.90;;;;;;;;;;5063339;28;20442;-87
2021/08/26 03:43:53;;;;;;;1999.90;999.90;;;;;;;;;;5067667;28;20527;-85
2021/08/26 03:46:20;;;;;;;1999.90;999.90;;;;;;;;;;5069416;28;20444;-85
2021/08/26 03:48:47;;;;;;;1999.90;999.90;;;;;;;;;;5069790;28;20566;-86
2021/08/26 03:51:14;;;;;;;1999.90;999.90;;;;;;;;;;5070054;28;21024;-85
2021/08/26 03:53:41;;;;;;;1999.90;999.90;;;;;;;;;;5069672;28;20905;-84
2021/08/26 03:56:08;;;;;;;1999.90;999.90;;;;;;;;;;5069976;28;20504;-85
2021/08/26 03:58:36;;;;;;;1999.90;999.90;;;;;;;;;;5070033;28;20471;-85
2021/08/26 04:01:05;;;;;;;1999.90;999.90;;;;;;;;;;5069746;28;20461;-87
2021/08/26 04:03:32;;;;;;;1999.90;999.90;;;;;;;;;;5069203;28;20443;-85
2021/08/26 04:06:00;;;;;;;1999.90;999.90;;;;;;;;;;5065907;28;21041;-85
2021/08/26 04:08:27;;;;;;;1999.90;999.90;;;;;;;;;;5066172;28;20547;-85
2021/08/26 04:10:54;;;;;;;1999.90;999.90;;;;;;;;;;5066346;28;20450;-85
2021/08/26 04:13:21;;;;;;;1999.90;999.90;;;;;;;;;;5065217;28;20463;-86
2021/08/26 04:15:49;;;;;;;1999.90;999.90;;;;;;;;;;5065305;28;20455;-85
2021/08/26 04:18:17;;;;;;;1999.90;999.90;;;;;;;;;;5054347;28;20470;-83
2021/08/26 04:20:45;;;;;;;1999.90;999.90;;;;;;;;;;5056559;28;20473;-83
2021/08/26 04:23:12;;;;;;;1999.90;999.90;;;;;;;;;;5058304;28;20477;-86
2021/08/26 04:25:39;;;;;;;1999.90;999.90;;;;;;;;;;5058036;28;20482;-83
2021/08/26 04:28:07;;;;;;;1999.90;999.90;;;;;;;;;;5058922;28;20476;-85
2021/08/26 04:30:34;;;;;;;1999.90;999.90;;;;;;;;;;5059128;28;20819;-84
2021/08/26 04:33:01;;;;;;;1999.90;999.90;;;;;;;;;;5058340;28;20454;-84
2021/08/26 04:35:30;;;;;;;1999.90;999.90;;;;;;;;;;5057552;28;20815;-84
2021/08/26 04:37:57;;;;;;;1999.90;999.90;;;;;;;;;;5057191;28;20447;-84
2021/08/26 04:40:24;;;;;;;1999.90;999.90;;;;;;;;;;5058955;28;20826;-83
2021/08/26 04:42:51;;;;;;;1999.90;999.90;;;;;;;;;;5058974;28;20446;-83
2021/08/26 04:45:19;;;;;;;1999.90;999.90;;;;;;;;;;5058459;28;20491;-83
2021/08/26 04:47:46;;;;;;;1999.90;999.90;;;;;;;;;;5058141;28;20544;-83
2021/08/26 04:50:13;;;;;;;1999.90;999.90;;;;;;;;;;5113528;22;20535;-86
2021/08/26 04:52:42;;;;;;;1999.90;999.90;;;;;;;;;;5096358;28;20444;-86
2021/08/26 04:55:09;;;;;;;1999.90;999.90;;;;;;;;;;5096440;28;20434;-83
2021/08/26 04:57:37;;;;;;;1999.90;999.90;;;;;;;;;;5097798;28;20483;-86
2021/08/26 05:00:04;;;;;;;1999.90;999.90;;;;;;;;;;5083671;28;20533;-85
2021/08/26 05:02:31;;;;;;;1999.90;999.90;;;;;;;;;;5074786;28;20513;-86
2021/08/26 05:04:59;;;;;;;1999.90;999.90;;;;;;;;;;5074924;28;20483;-85
2021/08/26 05:07:26;;;;;;;1999.90;999.90;;;;;;;;;;5082950;28;20445;-85
2021/08/26 05:09:54;;;;;;;1999.90;999.90;;;;;;;;;;5083633;28;20497;-85
2021/08/26 05:12:22;;;;;;;1999.90;999.90;;;;;;;;;;5083772;28;20490;-84
2021/08/26 05:14:49;;;;;;;1999.90;999.90;;;;;;;;;;5084931;28;20921;-85
2021/08/26 05:17:17;;;;;;;1999.90;999.90;;;;;;;;;;5079500;28;20875;-85
2021/08/26 05:19:44;;;;;;;1999.90;999.90;;;;;;;;;;5059387;28;20470;-85
2021/08/26 05:22:12;;;;;;;1999.90;999.90;;;;;;;;;;5058621;28;20459;-86
2021/08/26 05:24:39;;;;;;;1999.90;999.90;;;;;;;;;;5057996;28;20490;-86
2021/08/26 05:27:07;;;;;;;1999.90;999.90;;;;;;;;;;5058566;28;20454;-86
2021/08/26 05:29:34;;;;;;;1999.90;999.90;;;;;;;;;;5058147;28;20512;-85
2021/08/26 05:32:02;;;;;;;1999.90;999.90;;;;;;;;;;5058423;28;20455;-85
2021/08/26 05:34:29;;;;;;;1999.90;999.90;;;;;;;;;;5059172;28;20937;-86
2021/08/26 05:36:56;;;;;;;1999.90;999.90;;;;;;;;;;5058925;28;20533;-86
2021/08/26 05:39:23;;;;;;;1999.90;999.90;;;;;;;;;;5062327;28;20473;-86
2021/08/26 05:41:50;;;;;;;1999.90;999.90;;;;;;;;;;5070486;28;20448;-86
2021/08/26 05:44:19;;;;;;;1999.90;999.90;;;;;;;;;;5074885;28;20483;-87
2021/08/26 05:46:46;;;;;;;1999.90;999.90;;;;;;;;;;5069931;28;20487;-86
2021/08/26 05:49:14;;;;;;;1999.90;999.90;;;;;;;;;;5060044;28;20623;-87
2021/08/26 05:51:41;;;;;;;1999.90;999.90;;;;;;;;;;5081346;28;20508;-90
2021/08/26 05:54:08;;;;;;;1999.90;999.90;;;;;;;;;;5097780;28;20510;-87
2021/08/26 05:56:35;;;;;;;1999.90;999.90;;;;;;;;;;5091589;28;20527;-87
2021/08/26 05:59:03;;;;;;;1999.90;999.90;;;;;;;;;;5094913;28;20478;-87
2021/08/26 06:01:31;;;;;;;1999.90;999.90;;;;;;;;;;5084209;28;20456;-87
2021/08/26 06:03:59;;;;;;;1999.90;999.90;;;;;;;;;;5077685;28;20876;-88
2021/08/26 06:06:26;;;;;;;1999.90;999.90;;;;;;;;;;5074277;28;20492;-87
2021/08/26 06:08:53;;;;;;;1999.90;999.90;;;;;;;;;;5070930;28;20471;-87
2021/08/26 06:11:20;;;;;;;1999.90;999.90;;;;;;;;;;5054914;28;20519;-87
2021/08/26 06:13:47;;;;;;;1999.90;999.90;;;;;;;;;;5054369;28;20453;-87
2021/08/26 06:16:14;;;;;;;1999.90;999.90;;;;;;;;;;5054634;28;20449;-88
2021/08/26 06:18:43;;;;;;;1999.90;999.90;;;;;;;;;;5054555;28;20455;-87
2021/08/26 06:21:11;;;;;;;1999.90;999.90;;;;;;;;;;5053965;28;20986;-87
2021/08/26 06:23:38;;;;;;;1999.90;999.90;;;;;;;;;;5054114;28;20434;-87
2021/08/26 06:26:05;;;;;;;1999.90;999.90;;;;;;;;;;5054392;28;20513;-88
2021/08/26 06:28:32;;;;;;;1999.90;999.90;;;;;;;;;;5055113;28;21012;-87
2021/08/26 06:31:00;;;;;;;1999.90;999.90;;;;;;;;;;5054471;28;20468;-88
2021/08/26 06:33:27;;;;;;;1999.90;999.90;;;;;;;;;;5062723;28;20435;-90
2021/08/26 06:35:55;;;;;;;1999.90;999.90;;;;;;;;;;5060052;28;20951;-88
2021/08/26 06:38:22;;;;;;;1999.90;999.90;;;;;;;;;;5058747;28;20544;-88
2021/08/26 06:40:50;;;;;;;1999.90;999.90;;;;;;;;;;5060964;28;20481;-87
2021/08/26 06:43:17;;;;;;;1999.90;999.90;;;;;;;;;;5067252;28;20611;-87
2021/08/26 06:45:44;;;;;;;1999.90;999.90;;;;;;;;;;5067870;28;20559;-87
2021/08/26 06:48:11;;;;;;;1999.90;999.90;;;;;;;;;;5063978;28;20534;-88
2021/08/26 06:50:39;;;;;;;1999.90;999.90;;;;;;;;;;5062061;28;20554;-88
2021/08/26 06:53:07;;;;;;;1999.90;999.90;;;;;;;;;;5063921;28;20454;-88
2021/08/26 06:55:34;;;;;;;1999.90;999.90;;;;;;;;;;5066563;28;20467;-87
2021/08/26 06:58:02;;;;;;;1999.90;999.90;;;;;;;;;;5073617;28;20544;-88
2021/08/26 07:00:29;;;;;;;1999.90;999.90;;;;;;;;;;5072698;28;21053;-88
2021/08/26 07:02:56;;;;;;;1999.90;999.90;;;;;;;;;;5071121;28;20468;-86
2021/08/26 07:05:23;;;;;;;1999.90;999.90;;;;;;;;;;5061408;28;20496;-87
2021/08/26 07:07:51;;;;;;;1999.90;999.90;;;;;;;;;;5064254;28;20852;-88
2021/08/26 07:10:20;;;;;;;1999.90;999.90;;;;;;;;;;5073164;28;20479;-88
2021/08/26 07:12:47;;;;;;;1999.90;999.90;;;;;;;;;;5073635;28;20434;-88
2021/08/26 07:15:14;;;;;;;1999.90;999.90;;;;;;;;;;5074329;28;20456;-88
2021/08/26 07:17:42;;;;;;;1999.90;999.90;;;;;;;;;;5074396;28;20470;-87
2021/08/26 07:20:10;;;;;;;1999.90;999.90;;;;;;;;;;5074588;28;20458;-87
2021/08/26 07:22:37;;;;;;;1999.90;999.90;;;;;;;;;;5062362;28;20898;-86
2021/08/26 07:25:05;;;;;;;1999.90;999.90;;;;;;;;;;5073391;28;20455;-88
2021/08/26 07:27:33;;;;;;;1999.90;999.90;;;;;;;;;;5073436;28;20457;-88
2021/08/26 07:30:00;;;;;;;1999.90;999.90;;;;;;;;;;5065571;28;20459;-87
2021/08/26 07:32:27;;;;;;;1999.90;999.90;;;;;;;;;;5063908;28;20459;-86
2021/08/26 07:34:55;;;;;;;1999.90;999.90;;;;;;;;;;5071997;28;20433;-88
2021/08/26 07:37:22;;;;;;;1999.90;999.90;;;;;;;;;;5072762;28;20537;-88
2021/08/26 07:39:49;;;;;;;1999.90;999.90;;;;;;;;;;5057314;28;20572;-87
2021/08/26 07:42:16;;;;;;;1999.90;999.90;;;;;;;;;;5079542;28;20435;-89
2021/08/26 07:44:44;;;;;;;1999.90;999.90;;;;;;;;;;5080923;28;20509;-87
2021/08/26 07:47:12;;;;;;;1999.90;999.90;;;;;;;;;;5071891;28;20985;-87
2021/08/26 07:49:39;;;;;;;1999.90;999.90;;;;;;;;;;5062536;28;20485;-87
2021/08/26 07:52:06;;;;;;;1999.90;999.90;;;;;;;;;;5068008;28;20457;-87
2021/08/26 07:54:34;;;;;;;1999.90;999.90;;;;;;;;;;5066451;28;20457;-87
2021/08/26 07:57:04;;;;;;;1999.90;999.90;;;;;;;;;;5087385;28;20500;-88
2021/08/26 07:59:31;;;;;;;1999.90;999.90;;;;;;;;;;5069254;28;20993;-87
2021/08/26 08:01:59;;;;;;;1999.90;999.90;;;;;;;;;;5072833;28;20446;-87
2021/08/26 08:04:26;;;;;;;1999.90;999.90;;;;;;;;;;5076123;28;20463;-87
2021/08/26 08:06:54;;;;;;;1999.90;999.90;;;;;;;;;;5058960;28;20476;-87
2021/08/26 08:09:21;;;;;;;1999.90;999.90;;;;;;;;;;5060814;28;20861;-87
2021/08/26 08:11:48;;;;;;;1999.90;999.90;;;;;;;;;;5072464;28;20463;-86
2021/08/26 08:14:15;;;;;;;1999.90;999.90;;;;;;;;;;5072785;28;20462;-88
2021/08/26 08:16:42;;;;;;;1999.90;999.90;;;;;;;;;;5075744;28;20448;-87
2021/08/26 08:19:11;;;;;;;1999.90;999.90;;;;;;;;;;5074591;28;20463;-87
2021/08/26 08:21:38;;;;;;;1999.90;999.90;;;;;;;;;;5075358;28;20836;-88
2021/08/26 08:24:05;;;;;;;1999.90;999.90;;;;;;;;;;5077686;28;20455;-87
2021/08/26 08:26:33;;;;;;;1999.90;999.90;;;;;;;;;;5079270;28;20508;-88
2021/08/26 08:29:00;;;;;;;1999.90;999.90;;;;;;;;;;5079285;28;20486;-88
2021/08/26 08:31:28;;;;;;;1999.90;999.90;;;;;;;;;;5078338;28;20469;-87
2021/08/26 08:33:55;;;;;;;1999.90;999.90;;;;;;;;;;5079740;28;20534;-87
2021/08/26 08:36:23;;;;;;;1999.90;999.90;;;;;;;;;;5079660;28;20531;-87
2021/08/26 08:38:50;;;;;;;1999.90;999.90;;;;;;;;;;5078688;28;20458;-87
2021/08/26 08:41:18;;;;;;;1999.90;999.90;;;;;;;;;;5077856;28;20959;-87
2021/08/26 08:43:45;;;;;;;1999.90;999.90;;;;;;;;;;5078788;28;20455;-86
2021/08/26 08:46:13;;;;;;;1999.90;999.90;;;;;;;;;;5079996;28;20570;-87
2021/08/26 08:48:41;;;;;;;1999.90;999.90;;;;;;;;;;5077866;28;20833;-88
2021/08/26 08:51:09;;;;;;;1999.90;999.90;;;;;;;;;;5077768;28;20447;-89
2021/08/26 08:53:37;;;;;;;1999.90;999.90;;;;;;;;;;5077804;28;20557;-87
2021/08/26 08:56:06;;;;;;;1999.90;999.90;;;;;;;;;;5077635;28;20541;-87
2021/08/26 08:58:36;;;;;;;1999.90;999.90;;;;;;;;;;5077983;28;20451;-87
2021/08/26 09:01:03;;;;;;;1999.90;999.90;;;;;;;;;;5076895;28;20442;-88
2021/08/26 09:03:30;;;;;;;1999.90;999.90;;;;;;;;;;5077930;28;20513;-88
2021/08/26 09:05:58;;;;;;;1999.90;999.90;;;;;;;;;;5077602;28;20492;-86
2021/08/26 09:08:26;;;;;;;1999.90;999.90;;;;;;;;;;5076675;28;20458;-87
2021/08/26 09:10:55;;;;;;;1999.90;999.90;;;;;;;;;;5077102;28;20479;-87
2021/08/26 09:13:29;;;;;;;1999.90;999.90;;;;;;;;;;5076986;28;20490;-87
2021/08/26 09:15:57;;;;;;;1999.90;999.90;;;;;;;;;;5078495;28;20447;-87
2021/08/26 09:18:24;;;;;;;1999.90;999.90;;;;;;;;;;5077949;28;20433;-88
2021/08/26 09:20:52;;;;;;;1999.90;999.90;;;;;;;;;;5077691;28;20472;-87
2021/08/26 09:23:20;;;;;;;1999.90;999.90;;;;;;;;;;5076386;28;20476;-87
2021/08/26 09:25:47;;;;;;;1999.90;999.90;;;;;;;;;;5078686;28;20874;-87
2021/08/26 09:28:35;;;;;;;1999.90;999.90;;;;;;;;;;5078840;28;20571;-87
2021/08/26 09:31:14;;;;;;;1999.90;999.90;;;;;;;;;;5072950;28;20458;-87
2021/08/26 09:33:48;;;;;;;1999.90;999.90;;;;;;;;;;5084139;28;20505;-87
2021/08/26 09:36:18;;;;;;;1999.90;999.90;;;;;;;;;;5084084;28;20505;-87
2021/08/26 09:38:50;;;;;;;1999.90;999.90;;;;;;;;;;5080145;28;20453;-87
2021/08/26 09:41:17;;;;;;;1999.90;999.90;;;;;;;;;;5078128;28;20430;-87
2021/08/26 09:43:44;;;;;;;1999.90;999.90;;;;;;;;;;5077456;28;20996;-87
2021/08/26 09:46:29;;;;;;;1999.90;999.90;;;;;;;;;;5077276;28;20494;-87
2021/08/26 09:49:02;;;;;;;1999.90;999.90;;;;;;;;;;5076339;28;20479;-88
2021/08/26 09:51:29;;;;;;;1999.90;999.90;;;;;;;;;;5076743;28;20457;-87
2021/08/26 09:53:56;;;;;;;1999.90;999.90;;;;;;;;;;5076855;28;20537;-86
2021/08/26 09:56:23;;;;;;;1999.90;999.90;;;;;;;;;;5077272;28;20460;-86
2021/08/26 09:58:54;;;;;;;1999.90;999.90;;;;;;;;;;5078597;28;20447;-88
2021/08/26 10:01:23;;;;;;;1999.90;999.90;;;;;;;;;;5077850;28;20993;-87
2021/08/26 10:03:51;;;;;;;1999.90;999.90;;;;;;;;;;5078111;28;20845;-87
2021/08/26 10:06:19;;;;;;;1999.90;999.90;;;;;;;;;;5075525;28;20482;-88
2021/08/26 10:08:47;;;;;;;1999.90;999.90;;;;;;;;;;5075753;28;20463;-87
2021/08/26 10:11:16;;;;;;;1999.90;999.90;;;;;;;;;;5077282;28;20455;-87
2021/08/26 10:13:43;;;;;;;1999.90;999.90;;;;;;;;;;5076188;28;20446;-87
2021/08/26 10:16:11;;;;;;;1999.90;999.90;;;;;;;;;;5077030;28;20950;-87
2021/08/26 10:18:39;;;;;;;1999.90;999.90;;;;;;;;;;5076872;28;20458;-88
2021/08/26 10:21:08;;;;;;;1999.90;999.90;;;;;;;;;;5076001;28;20448;-87
2021/08/26 10:23:37;;;;;;;1999.90;999.90;;;;;;;;;;5075732;28;20489;-87
2021/08/26 10:26:06;;;;;;;1999.90;999.90;;;;;;;;;;5075443;28;21007;-87
2021/08/26 10:28:34;;;;;;;1999.90;999.90;;;;;;;;;;5076830;28;20479;-88
2021/08/26 10:31:21;;;;;;;1999.90;999.90;;;;;;;;;;5077763;28;20488;-87
2021/08/26 10:33:50;;;;;;;1999.90;999.90;;;;;;;;;;5078794;28;20496;-88
2021/08/26 10:36:18;;;;;;;1999.90;999.90;;;;;;;;;;5077465;28;20529;-88
2021/08/26 10:38:46;;;;;;;1999.90;999.90;;;;;;;;;;5077982;28;20532;-87
2021/08/26 10:41:29;;;;;;;1999.90;999.90;;;;;;;;;;5079615;28;20519;-87
2021/08/26 10:43:57;;;;;;;1999.90;999.90;;;;;;;;;;5078586;28;20451;-87
2021/08/26 10:46:39;;;;;;;1999.90;999.90;;;;;;;;;;5076354;28;20475;-87
2021/08/26 10:49:08;;;;;;;1999.90;999.90;;;;;;;;;;5075622;28;20569;-87
2021/08/26 10:51:43;;;;;;;1999.90;999.90;;;;;;;;;;5122431;22;20529;-87
2021/08/26 10:54:24;;;;;;;1999.90;999.90;;;;;;;;;;5099069;28;20445;-85
2021/08/26 10:56:52;;;;;;;1999.90;999.90;;;;;;;;;;5098960;28;20441;-87
2021/08/26 10:59:27;;;;;;;1999.90;999.90;;;;;;;;;;5099277;28;20445;-85
2021/08/26 11:01:55;;;;;;;1999.90;999.90;;;;;;;;;;5099142;28;20464;-86
2021/08/26 11:04:29;;;;;;;1999.90;999.90;;;;;;;;;;5098721;28;20453;-86
2021/08/26 11:06:56;;;;;;;1999.90;999.90;;;;;;;;;;5099562;28;20509;-85
2021/08/26 11:09:37;;;;;;;1999.90;999.90;;;;;;;;;;5099294;28;20489;-86
2021/08/26 11:12:19;;;;;;;1999.90;999.90;;;;;;;;;;5099305;28;20868;-86
2021/08/26 11:14:47;;;;;;;1999.90;999.90;;;;;;;;;;5098285;28;20456;-86
2021/08/26 11:17:25;;;;;;;1999.90;999.90;;;;;;;;;;5098307;28;20460;-87
2021/08/26 11:19:54;;;;;;;1999.90;999.90;;;;;;;;;;5098446;28;20569;-86
2021/08/26 11:22:21;;;;;;;1999.90;999.90;;;;;;;;;;5098606;28;20532;-86
2021/08/26 11:24:56;;;;;;;1999.90;999.90;;;;;;;;;;5098559;28;20880;-86
2021/08/26 11:27:24;;;;;;;1999.90;999.90;;;;;;;;;;5098354;28;20480;-86
2021/08/26 11:29:52;;;;;;;1999.90;999.90;;;;;;;;;;5100864;28;20450;-87
2021/08/26 11:32:20;;;;;;;1999.90;999.90;;;;;;;;;;5098885;28;20460;-86
2021/08/26 11:34:49;;;;;;;1999.90;999.90;;;;;;;;;;5099144;28;20538;-86
2021/08/26 11:37:19;;;;;;;1999.90;999.90;;;;;;;;;;5099009;28;20450;-86
2021/08/26 11:39:50;;;;;;;1999.90;999.90;;;;;;;;;;5099558;28;20541;-86
2021/08/26 11:42:26;;;;;;;1999.90;999.90;;;;;;;;;;5099763;28;20457;-86
2021/08/26 11:45:06;;;;;;;1999.90;999.90;;;;;;;;;;5099322;28;20456;-86
2021/08/26 11:47:34;;;;;;;1999.90;999.90;;;;;;;;;;5097708;28;20615;-86
2021/08/26 11:50:09;;;;;;;1999.90;999.90;;;;;;;;;;5098394;28;20488;-85
2021/08/26 11:52:38;;;;;;;1999.90;999.90;;;;;;;;;;5098567;28;20492;-86
2021/08/26 11:55:06;;;;;;;1999.90;999.90;;;;;;;;;;5098274;28;20445;-86
2021/08/26 11:57:33;;;;;;;1999.90;999.90;;;;;;;;;;5098535;28;20434;-86
2021/08/26 12:00:07;;;;;;;1999.90;999.90;;;;;;;;;;5098576;28;20444;-86
2021/08/26 12:02:36;;;;;;;1999.90;999.90;;;;;;;;;;5098471;28;20962;-87
2021/08/26 12:05:04;;;;;;;1999.90;999.90;;;;;;;;;;5098575;28;20489;-86
2021/08/26 12:07:33;;;;;;;1999.90;999.90;;;;;;;;;;5097065;28;20572;-85
2021/08/26 12:10:08;;;;;;;1999.90;999.90;;;;;;;;;;5097595;28;20454;-85
2021/08/26 12:12:36;;;;;;;1999.90;999.90;;;;;;;;;;5097200;28;20457;-86
2021/08/26 12:15:03;;;;;;;1999.90;999.90;;;;;;;;;;5096274;28;20450;-86
2021/08/26 12:17:30;;;;;;;1999.90;999.90;;;;;;;;;;5096707;28;20452;-85
2021/08/26 12:19:57;;;;;;;1999.90;999.90;;;;;;;;;;5096585;28;20450;-85
2021/08/26 12:22:25;;;;;;;1999.90;999.90;;;;;;;;;;5096219;28;20445;-86
2021/08/26 12:24:54;;;;;;;1999.90;999.90;;;;;;;;;;5096338;28;20446;-85
2021/08/26 12:27:22;;;;;;;1999.90;999.90;;;;;;;;;;5096072;28;20527;-83
2021/08/26 12:29:50;;;;;;;1999.90;999.90;;;;;;;;;;5096475;28;20448;-85
2021/08/26 12:32:24;;;;;;;1999.90;999.90;;;;;;;;;;5096390;28;20454;-86
2021/08/26 12:34:52;;;;;;;1999.90;999.90;;;;;;;;;;5096592;28;20450;-85
2021/08/26 12:37:19;;;;;;;1999.90;999.90;;;;;;;;;;5094529;28;20470;-86
2021/08/26 12:39:47;;;;;;;1999.90;999.90;;;;;;;;;;5095676;28;20442;-85
2021/08/26 12:42:16;;;;;;;1999.90;999.90;;;;;;;;;;5097311;28;20606;-85
2021/08/26 12:44:45;;;;;;;1999.90;999.90;;;;;;;;;;5098439;28;20450;-84
2021/08/26 12:47:13;;;;;;;1999.90;999.90;;;;;;;;;;5098670;28;20492;-85
2021/08/26 12:49:43;;;;;;;1999.90;999.90;;;;;;;;;;5098800;28;20858;-86
2021/08/26 12:52:11;;;;;;;1999.90;999.90;;;;;;;;;;5098782;28;20449;-85
2021/08/26 12:54:41;;;;;;;1999.90;999.90;;;;;;;;;;5098116;28;20536;-85
2021/08/26 12:57:18;;;;;;;1999.90;999.90;;;;;;;;;;5097551;28;20465;-84
2021/08/26 12:59:47;;;;;;;1999.90;999.90;;;;;;;;;;5098237;28;20537;-85
2021/08/26 13:02:14;;;;;;;1999.90;999.90;;;;;;;;;;5097796;28;20445;-85
2021/08/26 13:04:42;;;;;;;1999.90;999.90;;;;;;;;;;5098545;28;20446;-85
2021/08/26 13:07:18;;;;;;;1999.90;999.90;;;;;;;;;;5098203;28;20486;-85
2021/08/26 13:09:54;;;;;;;1999.90;999.90;;;;;;;;;;5098524;28;20450;-85
2021/08/26 13:12:21;;;;;;;1999.90;999.90;;;;;;;;;;5097779;28;20446;-85
2021/08/26 13:14:52;;;;;;;1999.90;999.90;;;;;;;;;;5097993;28;20960;-85
2021/08/26 13:17:19;;;;;;;1999.90;999.90;;;;;;;;;;5098253;28;20516;-86
2021/08/26 13:19:48;;;;;;;1999.90;999.90;;;;;;;;;;5098187;28;20434;-86
2021/08/26 13:22:19;;;;;;;1999.90;999.90;;;;;;;;;;5107817;28;21076;-87
2021/08/26 13:24:48;;;;;;;1999.90;999.90;;;;;;;;;;5106189;28;20921;-87
2021/08/26 13:27:16;;;;;;;1999.90;999.90;;;;;;;;;;5107834;28;20482;-87
2021/08/26 13:29:44;;;;;;;1999.90;999.90;;;;;;;;;;5105529;28;20477;-87
2021/08/26 13:32:28;;;;;;;1999.90;999.90;;;;;;;;;;5044512;28;20512;-87
2021/08/26 13:34:55;;;;;;;1999.90;999.90;;;;;;;;;;5044535;28;20506;-88
2021/08/26 13:37:22;;;;;;;1999.90;999.90;;;;;;;;;;5043902;28;20476;-87
2021/08/26 13:39:49;;;;;;;1999.90;999.90;;;;;;;;;;5042893;28;20457;-87
2021/08/26 13:42:16;;;;;;;1999.90;999.90;;;;;;;;;;5043475;28;20639;-87